Nearby METAR Reports

 

KPRB - Paso Robles, California, USA
Distance from station: SW 1mi, 1km
Updated: 09/20/2014 9:53am
Few Clouds
Few Clouds
 Wind from calm
Wind: Calm
Temperature: 64°F , 18°C
Dew Point: 57°F , 14°C
Humidity: 78%
Barometer: 29.96 inHg , 1014.6 hPa
Clouds: Few Clouds
Visibility: 10 miles , 16 km
Cloud details: Few Clouds 800 ft
2014/09/20 16:53 KPRB 201653Z AUTO 00000KT 10SM FEW008 18/14 A2996 RMK AO2 SLP141 T01830139 TSNO $
KSBP - San Luis Obispo, California, USA
Distance from station: S 30mi, 49km
Updated: 09/20/2014 9:56am
Overcast
Overcast
 Wind from calm
Wind: Calm
Temperature: 64°F , 18°C
Dew Point: 59°F , 15°C
Humidity: 83%
Barometer: 29.97 inHg , 1014.9 hPa
Clouds: Overcast
Visibility: 10 miles , 16 km
Cloud details: Overcast 1000 ft
2014/09/20 16:56 KSBP 201656Z 00000KT 10SM OVC010 18/15 A2997 RMK AO2 SLP147 T01780150
 
KSMX - Santa Maria, California, USA
Distance from station: S 54mi, 87km
Updated: 09/20/2014 10:51am
Mostly cloudy
Mostly cloudy
 Wind from calm
Wind: Calm
Temperature: 68°F , 20°C
Dew Point: 59°F , 15°C
Humidity: 73%
Barometer: 29.98 inHg , 1015.2 hPa
Clouds: Mostly cloudy
Visibility: 10 miles , 16 km
Cloud details: Mostly cloudy 1000 ft
2014/09/20 17:51 KSMX 201751Z 00000KT 10SM BKN010 20/15 A2998 RMK AO2 SLP150 T02000150 10200 20172 50010
KNLC - Lemoore Nas/Reev, California, USA
Distance from station: NE 58mi, 94km
Updated: 09/20/2014 9:56am
Partly cloudy
Partly cloudy
 Wind from NNW
Wind: NNW 14 mph , 22 km/h
Temperature: 81°F , 27°C
Heat Index: 81°F , 27°C
Dew Point: 55°F , 13°C
Humidity: 42%
Barometer: 29.90 inHg , 1012.5 hPa
Clouds: Partly cloudy
Visibility: 10 miles , 16 km
Cloud details: Few Clouds 11000 ft
Partly cloudy 20000 ft
2014/09/20 16:56 KNLC 201656Z 34012KT 10SM FEW110 SCT200 27/13 A2990 RMK AO2 SLP125 FU FEW110 RH/41 T02670128
 
KVBG - Vandenberg Afb, California, USA
Distance from station: S 65mi, 105km
Updated: 09/20/2014 10:44am
Overcast
Overcast
 Wind from NNW
Wind: NNW 6 mph , 9 km/h
Temperature: 64°F , 18°C
Dew Point: 61°F , 16°C
Humidity: 88%
Barometer: 29.98 inHg , 1015.2 hPa
Clouds: Overcast
Visibility: 10 miles , 16 km
Cloud details: Overcast 900 ft
2014/09/20 17:44 KVBG 201744Z AUTO 33005KT 10SM OVC009 18/16 A2998 RMK AO2 TSNO
KLPC - Lompoc, California, USA
Distance from station: S 70mi, 113km
Updated: 09/20/2014 10:35am
Mostly cloudy
Mostly cloudy
 Wind from calm
Wind: Calm
Temperature: 70°F , 21°C
Dew Point: 57°F , 14°C
Humidity: 64%
Barometer: 29.98 inHg , 1015.2 hPa
Clouds: Mostly cloudy
Visibility: 10 miles , 16 km
Cloud details: Mostly cloudy 1600 ft
2014/09/20 17:35 KLPC 201735Z AUTO 00000KT 10SM BKN016 21/14 A2998 RMK AO1
 
KHJO - Hanford, California, USA
Distance from station: NE 72mi, 116km
Updated: 09/20/2014 9:53am
Clear
Clear
 Wind from WNW
Wind: WNW 6 mph , 9 km/h
Temperature: 75°F , 24°C
Dew Point: 57°F , 14°C
Humidity: 54%
Barometer: 29.90 inHg , 1012.5 hPa
Clouds: Clear
Visibility: 10 miles , 16 km
2014/09/20 16:53 KHJO 201653Z AUTO 30005KT 10SM CLR 24/14 A2990 RMK AO2 SLP124 T02440139